createdAt,value
2019-04-30T00:00:15.797Z,45.20
2019-04-30T00:02:47.961Z,46.63
2019-04-30T00:05:18.727Z,47.50
2019-04-30T00:07:46.314Z,47.87
2019-04-30T00:10:15.460Z,48.20
2019-04-30T00:12:45.276Z,48.77
2019-04-30T00:15:16.201Z,47.37
2019-04-30T00:17:45.622Z,46.50
2019-04-30T00:20:15.098Z,51.60
2019-04-30T00:22:47.023Z,51.27
2019-04-30T00:25:15.214Z,48.93
2019-04-30T00:27:45.889Z,47.57
2019-04-30T00:30:15.343Z,48.53
2019-04-30T00:32:45.592Z,44.67
2019-04-30T00:35:16.155Z,48.67
2019-04-30T00:37:44.927Z,48.33
2019-04-30T00:40:15.284Z,45.60
2019-04-30T00:42:45.622Z,42.00
2019-04-30T00:45:15.338Z,46.03
2019-04-30T00:47:47.577Z,43.27
2019-04-30T00:50:14.973Z,45.83
2019-04-30T00:52:43.361Z,47.67
2019-04-30T00:55:11.653Z,47.87
2019-04-30T00:57:43.637Z,46.63
2019-04-30T01:00:10.750Z,49.00
2019-04-30T01:02:40.664Z,45.80
2019-04-30T01:05:10.606Z,48.30
2019-04-30T01:07:39.568Z,49.13
2019-04-30T01:10:10.494Z,47.43
2019-04-30T01:12:44.932Z,50.93
2019-04-30T01:15:11.124Z,51.23
2019-04-30T01:17:40.875Z,48.27
2019-04-30T01:20:09.416Z,46.83
2019-04-30T01:22:38.841Z,46.07
2019-04-30T01:25:12.112Z,48.13
2019-04-30T01:27:39.464Z,46.10
2019-04-30T01:30:08.717Z,46.57
2019-04-30T01:32:37.166Z,47.00
2019-04-30T01:35:08.888Z,45.13
2019-04-30T01:37:38.675Z,47.83
2019-04-30T01:40:13.414Z,47.67
2019-04-30T01:42:43.113Z,48.87
2019-04-30T01:45:08.747Z,50.07
2019-04-30T01:47:37.080Z,47.97
2019-04-30T01:50:06.244Z,43.43
2019-04-30T01:52:52.365Z,48.20
2019-04-30T01:55:23.260Z,50.03
2019-04-30T01:57:53.175Z,48.20
2019-04-30T02:00:32.034Z,46.00
2019-04-30T02:03:00.314Z,49.43
2019-04-30T02:05:28.828Z,45.47
2019-04-30T02:07:58.532Z,48.70
2019-04-30T02:10:28.484Z,48.97
2019-04-30T02:12:58.911Z,47.43
2019-04-30T02:15:26.886Z,46.07
2019-04-30T02:17:55.175Z,45.03
2019-04-30T02:20:23.424Z,48.03
2019-04-30T02:22:51.711Z,46.83
2019-04-30T02:25:19.966Z,49.80
2019-04-30T02:27:48.938Z,48.87
2019-04-30T02:30:20.526Z,47.33
2019-04-30T02:32:49.570Z,49.37
2019-04-30T02:35:35.016Z,48.30
2019-04-30T02:38:10.659Z,48.17
2019-04-30T02:40:39.264Z,48.80
2019-04-30T02:43:09.364Z,52.33
2019-04-30T02:45:40.011Z,53.87
2019-04-30T02:48:11.484Z,56.63
2019-04-30T02:50:39.322Z,49.47
2019-04-30T02:53:29.249Z,55.93
2019-04-30T02:55:59.511Z,50.80
2019-04-30T02:58:29.386Z,55.13
2019-04-30T03:01:00.071Z,52.43
2019-04-30T03:03:29.818Z,53.03
2019-04-30T03:05:59.600Z,50.40
2019-04-30T03:08:29.764Z,50.87
2019-04-30T03:10:59.919Z,53.87
2019-04-30T03:13:29.925Z,54.30
2019-04-30T03:15:59.282Z,58.53
2019-04-30T03:18:35.151Z,51.87
2019-04-30T03:21:09.771Z,54.50
2019-04-30T03:23:39.176Z,55.73
2019-04-30T03:26:09.691Z,56.67
2019-04-30T03:28:39.679Z,57.30
2019-04-30T03:31:11.908Z,51.17
2019-04-30T03:33:41.910Z,53.60
2019-04-30T03:36:11.879Z,52.07
2019-04-30T03:38:39.631Z,52.33
2019-04-30T03:41:09.707Z,56.70
2019-04-30T03:43:39.883Z,53.63
2019-04-30T03:46:10.156Z,52.57
2019-04-30T03:48:39.589Z,52.73
2019-04-30T03:51:10.363Z,51.90
2019-04-30T03:53:42.385Z,53.73
2019-04-30T03:56:09.487Z,53.30
2019-04-30T03:58:39.588Z,60.13
2019-04-30T04:01:19.643Z,58.30
2019-04-30T04:04:04.496Z,56.07
2019-04-30T04:06:40.340Z,58.30
2019-04-30T04:09:10.445Z,55.43
2019-04-30T04:11:40.671Z,63.00
2019-04-30T04:14:09.361Z,61.33
2019-04-30T04:16:40.566Z,61.60
2019-04-30T04:19:09.660Z,59.00
2019-04-30T04:21:39.325Z,58.27
2019-04-30T04:24:10.436Z,61.93
2019-04-30T04:26:37.677Z,59.10
2019-04-30T04:29:06.019Z,62.53
2019-04-30T04:31:34.330Z,58.47
2019-04-30T04:34:02.575Z,59.23
2019-04-30T04:36:30.876Z,56.93
2019-04-30T04:39:00.115Z,60.73
2019-04-30T04:41:29.566Z,59.70
2019-04-30T04:44:00.202Z,56.83
2019-04-30T04:46:30.601Z,56.97
2019-04-30T04:48:59.651Z,57.73
2019-04-30T04:51:37.936Z,54.63
2019-04-30T04:54:00.257Z,58.50
2019-04-30T04:56:30.378Z,60.70
2019-04-30T04:59:00.218Z,50.83
2019-04-30T05:01:28.935Z,51.70
2019-04-30T05:03:59.053Z,52.37
2019-04-30T05:06:29.643Z,50.43
2019-04-30T05:08:59.201Z,53.30
2019-04-30T05:11:29.386Z,46.60
2019-04-30T05:13:58.895Z,46.03
2019-04-30T05:16:28.907Z,48.10
2019-04-30T05:18:58.613Z,44.27
2019-04-30T05:21:39.654Z,47.37
2019-04-30T05:23:59.029Z,42.93
2019-04-30T05:26:28.731Z,43.93
2019-04-30T05:28:57.123Z,40.10
2019-04-30T05:31:25.386Z,41.53
2019-04-30T05:33:53.751Z,42.53
2019-04-30T05:36:22.003Z,39.87
2019-04-30T05:38:50.274Z,45.70
2019-04-30T05:41:19.304Z,42.93
2019-04-30T05:43:48.814Z,48.93
2019-04-30T05:46:17.345Z,42.53
2019-04-30T05:48:45.645Z,40.97
2019-04-30T05:51:13.908Z,37.57
2019-04-30T05:53:42.243Z,39.13
2019-04-30T05:56:10.536Z,43.20
2019-04-30T05:58:39.690Z,41.63
2019-04-30T06:01:09.689Z,37.97
2019-04-30T06:03:38.568Z,41.23
2019-04-30T06:06:08.829Z,36.63
2019-04-30T06:08:39.259Z,42.00
2019-04-30T06:11:09.446Z,39.90
2019-04-30T06:13:49.156Z,35.73
2019-04-30T06:16:19.148Z,36.23
2019-04-30T06:18:48.530Z,38.53
2019-04-30T06:21:16.955Z,36.53
2019-04-30T06:23:45.235Z,37.27
2019-04-30T06:26:13.517Z,40.17
2019-04-30T06:28:41.788Z,35.00
2019-04-30T06:31:10.073Z,41.10
2019-04-30T06:33:38.850Z,42.27
2019-04-30T06:36:08.553Z,39.13
2019-04-30T06:38:38.680Z,38.60
2019-04-30T06:41:08.607Z,36.70
2019-04-30T06:43:38.580Z,39.47
2019-04-30T06:46:08.752Z,36.03
2019-04-30T06:48:37.138Z,35.37
2019-04-30T06:51:05.411Z,34.13
2019-04-30T06:53:33.664Z,35.20
2019-04-30T06:56:01.981Z,37.63
2019-04-30T06:58:30.244Z,35.87
2019-04-30T07:00:59.594Z,39.33
2019-04-30T07:03:29.058Z,33.63
2019-04-30T07:05:58.625Z,32.50
2019-04-30T07:08:54.682Z,37.13
2019-04-30T07:11:24.140Z,35.50
2019-04-30T07:13:52.616Z,34.50
2019-04-30T07:16:20.965Z,35.73
2019-04-30T07:18:49.278Z,39.77
2019-04-30T07:21:19.829Z,34.83
2019-04-30T07:23:48.531Z,35.27
2019-04-30T07:26:19.675Z,35.10
2019-04-30T07:28:52.779Z,30.30
2019-04-30T07:31:19.002Z,33.63
2019-04-30T07:33:51.477Z,34.03
2019-04-30T07:36:19.368Z,29.30
2019-04-30T07:38:53.710Z,34.73
2019-04-30T07:41:18.877Z,31.87
2019-04-30T07:43:49.396Z,33.73
2019-04-30T07:46:16.993Z,33.70
2019-04-30T07:48:45.279Z,36.10
2019-04-30T07:51:14.061Z,34.80
2019-04-30T07:53:42.714Z,33.57
2019-04-30T07:56:24.104Z,34.83
2019-04-30T07:58:40.999Z,36.40
2019-04-30T08:01:10.270Z,35.63
2019-04-30T08:03:40.754Z,28.60
2019-04-30T08:06:10.299Z,29.40
2019-04-30T08:08:40.831Z,31.43
2019-04-30T08:11:09.265Z,32.40
2019-04-30T08:13:40.720Z,28.43
2019-04-30T08:16:09.755Z,30.80
2019-04-30T08:18:39.220Z,35.97
2019-04-30T08:21:09.507Z,31.63
2019-04-30T08:23:39.531Z,33.60
2019-04-30T08:26:08.822Z,30.90
2019-04-30T08:28:38.703Z,34.27
2019-04-30T08:31:08.833Z,31.23
2019-04-30T08:33:37.068Z,31.70
2019-04-30T08:36:05.346Z,31.67
2019-04-30T08:38:33.635Z,35.43
2019-04-30T08:41:01.921Z,26.57
2019-04-30T08:43:30.225Z,27.30
2019-04-30T08:45:59.498Z,29.70
2019-04-30T08:48:43.759Z,28.73
2019-04-30T08:50:59.296Z,27.30
2019-04-30T08:53:32.940Z,27.00
2019-04-30T08:55:59.122Z,26.90
2019-04-30T08:58:29.173Z,29.80
2019-04-30T09:00:58.777Z,29.33
2019-04-30T09:03:27.159Z,29.30
2019-04-30T09:05:59.795Z,29.93
2019-04-30T09:08:29.469Z,30.67
2019-04-30T09:10:59.532Z,26.00
2019-04-30T09:13:28.653Z,27.30
2019-04-30T09:15:59.178Z,24.80
2019-04-30T09:18:29.038Z,24.97
2019-04-30T09:21:04.156Z,21.90
2019-04-30T09:23:34.329Z,26.07
2019-04-30T09:25:58.599Z,21.20
2019-04-30T09:28:27.037Z,22.53
2019-04-30T09:30:55.381Z,23.40
2019-04-30T09:33:23.635Z,22.37
2019-04-30T09:35:51.939Z,18.50
2019-04-30T09:38:20.207Z,17.43
2019-04-30T09:40:50.563Z,19.53
2019-04-30T09:43:18.837Z,21.87
2019-04-30T09:45:47.289Z,18.73
2019-04-30T09:48:15.552Z,19.90
2019-04-30T09:50:43.944Z,17.43
2019-04-30T09:53:12.722Z,19.93
2019-04-30T09:55:41.290Z,18.90
2019-04-30T09:58:17.188Z,21.47
2019-04-30T10:00:39.968Z,19.03
2019-04-30T10:03:10.394Z,19.53
2019-04-30T10:05:39.112Z,19.33
2019-04-30T10:08:07.406Z,18.13
2019-04-30T10:10:38.759Z,18.40
2019-04-30T10:13:07.103Z,20.63
2019-04-30T10:15:45.924Z,16.47
2019-04-30T10:18:14.223Z,17.70
2019-04-30T10:20:43.572Z,17.53
2019-04-30T10:23:11.845Z,18.13
2019-04-30T10:25:40.179Z,14.73
2019-04-30T10:28:09.984Z,17.30
2019-04-30T10:30:38.510Z,18.77
2019-04-30T10:33:06.880Z,15.53
2019-04-30T10:35:35.214Z,18.20
2019-04-30T10:38:03.532Z,18.27
2019-04-30T10:40:31.819Z,18.87
2019-04-30T10:43:00.181Z,17.65
2019-04-30T10:45:28.842Z,15.48
2019-04-30T10:47:59.135Z,18.73
2019-04-30T10:50:27.210Z,15.68
2019-04-30T10:52:55.553Z,14.63
2019-04-30T10:55:23.816Z,17.62
2019-04-30T10:57:52.108Z,16.32
2019-04-30T11:00:23.645Z,17.77
2019-04-30T11:02:51.973Z,22.45
2019-04-30T11:05:21.127Z,16.60
2019-04-30T11:07:49.614Z,16.97
2019-04-30T11:10:18.907Z,19.52
2019-04-30T11:12:47.339Z,18.87
2019-04-30T11:15:15.592Z,22.50
2019-04-30T11:17:44.021Z,17.00
2019-04-30T11:20:12.599Z,17.62
2019-04-30T11:22:41.343Z,18.62
2019-04-30T11:25:10.302Z,24.45
2019-04-30T11:27:40.706Z,16.15
2019-04-30T11:30:20.380Z,19.02
2019-04-30T11:32:39.123Z,17.87
2019-04-30T11:35:07.614Z,15.90
2019-04-30T11:37:35.889Z,13.35
2019-04-30T11:40:06.739Z,14.83
2019-04-30T11:42:35.090Z,17.55
2019-04-30T11:45:08.571Z,19.50
2019-04-30T11:47:38.188Z,18.37
2019-04-30T11:50:11.183Z,16.25
2019-04-30T11:52:39.448Z,13.35
2019-04-30T11:55:09.680Z,17.12
2019-04-30T11:57:39.770Z,15.20
2019-04-30T12:00:11.081Z,17.15
2019-04-30T12:02:41.016Z,18.90
2019-04-30T12:05:09.339Z,16.67
2019-04-30T12:07:41.976Z,19.10
2019-04-30T12:10:23.649Z,17.60
2019-04-30T12:12:51.998Z,18.45
2019-04-30T12:15:20.420Z,17.42
2019-04-30T12:17:48.782Z,16.62
2019-04-30T12:20:17.095Z,17.80
2019-04-30T12:22:45.379Z,18.45
2019-04-30T12:25:13.677Z,17.07
2019-04-30T12:27:41.945Z,16.95
2019-04-30T12:30:10.329Z,18.27
2019-04-30T12:32:39.301Z,18.07
2019-04-30T12:35:07.608Z,18.52
2019-04-30T12:37:35.899Z,17.90
2019-04-30T12:40:09.442Z,17.07
2019-04-30T12:42:38.455Z,19.30
2019-04-30T12:45:09.467Z,16.70
2019-04-30T12:47:47.979Z,19.90
2019-04-30T12:50:20.643Z,16.15
2019-04-30T12:52:56.328Z,16.82
2019-04-30T12:55:42.332Z,15.88
2019-04-30T12:58:10.613Z,16.32
2019-04-30T13:00:39.215Z,16.62
2019-04-30T13:03:07.542Z,18.90
2019-04-30T13:05:35.825Z,16.73
2019-04-30T13:08:04.824Z,16.85
2019-04-30T13:10:33.892Z,17.02
2019-04-30T13:13:02.974Z,16.70
2019-04-30T13:15:31.399Z,16.48
2019-04-30T13:17:59.707Z,20.97
2019-04-30T13:20:29.362Z,16.65
2019-04-30T13:22:58.889Z,17.02
2019-04-30T13:25:34.802Z,17.90
2019-04-30T13:27:58.943Z,20.27
2019-04-30T13:30:29.886Z,16.25
2019-04-30T13:33:05.834Z,16.30
2019-04-30T13:35:34.539Z,15.98
2019-04-30T13:38:04.568Z,16.05
2019-04-30T13:40:40.508Z,16.07
2019-04-30T13:43:10.697Z,15.03
2019-04-30T13:45:38.989Z,14.60
2019-04-30T13:48:08.968Z,15.28
2019-04-30T13:50:39.048Z,16.32
2019-04-30T13:53:08.870Z,19.12
2019-04-30T13:55:45.015Z,16.77
2019-04-30T13:58:07.287Z,15.72
2019-04-30T14:00:35.694Z,14.98
2019-04-30T14:03:11.629Z,17.92
2019-04-30T14:05:39.942Z,15.63
2019-04-30T14:08:12.560Z,16.02
2019-04-30T14:10:42.464Z,18.02
2019-04-30T14:13:10.764Z,16.62
2019-04-30T14:15:39.050Z,17.85
2019-04-30T14:18:09.239Z,17.55
2019-04-30T14:20:37.366Z,15.60
2019-04-30T14:23:05.674Z,16.42
2019-04-30T14:25:34.022Z,17.12
2019-04-30T14:28:02.306Z,18.82
2019-04-30T14:30:30.667Z,15.18
2019-04-30T14:32:59.321Z,14.38
2019-04-30T14:35:28.663Z,16.35
2019-04-30T14:37:57.064Z,12.95
2019-04-30T14:40:26.005Z,13.55
2019-04-30T14:42:59.609Z,14.40
2019-04-30T14:45:45.076Z,15.00
2019-04-30T14:48:23.771Z,16.35
2019-04-30T14:50:51.238Z,13.75
2019-04-30T14:53:23.732Z,15.32
2019-04-30T14:55:53.655Z,15.18
2019-04-30T14:58:26.520Z,15.78
2019-04-30T15:00:56.454Z,14.87
2019-04-30T15:03:35.202Z,15.25
2019-04-30T15:06:03.590Z,13.83
2019-04-30T15:08:31.907Z,15.00
2019-04-30T15:11:00.193Z,12.50
2019-04-30T15:13:29.505Z,14.85
2019-04-30T15:15:57.920Z,13.32
2019-04-30T15:18:26.194Z,14.15
2019-04-30T15:20:54.491Z,12.98
2019-04-30T15:23:26.828Z,12.55
2019-04-30T15:25:55.126Z,13.88
2019-04-30T15:28:23.424Z,14.40
2019-04-30T15:30:52.178Z,16.70
2019-04-30T15:33:34.189Z,18.35
2019-04-30T15:36:03.314Z,15.28
2019-04-30T15:38:48.914Z,14.55
2019-04-30T15:41:17.782Z,14.63
2019-04-30T15:43:46.396Z,14.80
2019-04-30T15:46:14.764Z,20.10
2019-04-30T15:48:43.036Z,18.60
2019-04-30T15:51:11.548Z,12.63
2019-04-30T15:53:39.843Z,15.28
2019-04-30T15:56:08.570Z,16.17
2019-04-30T15:58:41.492Z,12.82
2019-04-30T16:01:11.454Z,14.50
2019-04-30T16:03:41.404Z,15.43
2019-04-30T16:06:10.456Z,18.10
2019-04-30T16:08:43.432Z,13.70
2019-04-30T16:11:25.393Z,14.15
2019-04-30T16:14:13.156Z,13.75
2019-04-30T16:16:43.097Z,13.25
2019-04-30T16:19:11.465Z,13.83
2019-04-30T16:21:39.747Z,15.63
2019-04-30T16:24:08.709Z,16.57
2019-04-30T16:26:48.627Z,15.08
2019-04-30T16:29:07.029Z,14.15
2019-04-30T16:31:35.301Z,16.67
2019-04-30T16:34:03.607Z,16.87
2019-04-30T16:36:31.903Z,16.02
2019-04-30T16:39:00.235Z,13.58
2019-04-30T16:41:31.827Z,16.85
2019-04-30T16:43:59.367Z,16.12
2019-04-30T16:46:29.521Z,15.72
2019-04-30T16:48:58.732Z,17.35
2019-04-30T16:51:28.884Z,17.77
2019-04-30T16:53:58.596Z,15.70
2019-04-30T16:56:28.635Z,17.53
2019-04-30T16:59:00.588Z,13.33
2019-04-30T17:01:29.010Z,16.00
2019-04-30T17:04:04.889Z,16.30
2019-04-30T17:06:40.729Z,14.83
2019-04-30T17:09:13.432Z,14.87
2019-04-30T17:11:43.332Z,14.83
2019-04-30T17:14:13.519Z,14.33
2019-04-30T17:16:41.810Z,13.70
2019-04-30T17:19:10.105Z,15.17
2019-04-30T17:21:38.373Z,19.47
2019-04-30T17:24:08.669Z,16.90
2019-04-30T17:26:36.712Z,16.37
2019-04-30T17:29:05.055Z,15.37
2019-04-30T17:31:33.342Z,14.23
2019-04-30T17:34:01.695Z,17.70
2019-04-30T17:36:29.982Z,12.63
2019-04-30T17:38:58.265Z,15.53
2019-04-30T17:41:26.617Z,17.20
2019-04-30T17:43:54.914Z,16.27
2019-04-30T17:46:23.260Z,15.17
2019-04-30T17:48:51.626Z,16.37
2019-04-30T17:51:22.720Z,19.80
2019-04-30T17:54:09.742Z,20.97
2019-04-30T17:56:38.127Z,22.87
2019-04-30T17:59:06.417Z,19.47
2019-04-30T18:01:34.904Z,18.67
2019-04-30T18:04:03.240Z,19.37
2019-04-30T18:06:31.550Z,16.93
2019-04-30T18:08:59.879Z,16.30
2019-04-30T18:11:29.575Z,19.73
2019-04-30T18:13:59.005Z,16.17
2019-04-30T18:16:28.659Z,15.47
2019-04-30T18:19:01.399Z,15.53
2019-04-30T18:21:31.329Z,17.10
2019-04-30T18:24:04.253Z,21.13
2019-04-30T18:26:33.298Z,21.03
2019-04-30T18:29:01.621Z,18.07
2019-04-30T18:31:29.983Z,18.33
2019-04-30T18:33:59.319Z,18.17
2019-04-30T18:36:29.335Z,18.10
2019-04-30T18:38:59.029Z,18.50
2019-04-30T18:41:27.386Z,18.87
2019-04-30T18:43:55.653Z,19.50
2019-04-30T18:46:24.062Z,17.70
2019-04-30T18:48:52.838Z,20.57
2019-04-30T18:51:33.765Z,18.23
2019-04-30T18:53:51.177Z,20.17
2019-04-30T18:56:19.460Z,17.83
2019-04-30T18:58:48.669Z,22.80
2019-04-30T19:01:17.099Z,19.17
2019-04-30T19:03:45.404Z,17.50
2019-04-30T19:06:22.903Z,21.37
2019-04-30T19:08:47.001Z,21.90
2019-04-30T19:11:25.340Z,20.23
2019-04-30T19:14:03.771Z,25.17
2019-04-30T19:16:49.531Z,19.97
2019-04-30T19:19:19.647Z,19.17
2019-04-30T19:21:48.642Z,18.87
2019-04-30T19:24:17.043Z,23.40
2019-04-30T19:26:45.323Z,21.50
2019-04-30T19:29:13.602Z,19.87
2019-04-30T19:31:41.889Z,20.33
2019-04-30T19:34:10.185Z,19.43
2019-04-30T19:36:40.542Z,22.23
2019-04-30T19:39:09.794Z,23.27
2019-04-30T19:41:38.746Z,24.47
2019-04-30T19:44:07.475Z,23.07
2019-04-30T19:46:36.181Z,20.70
2019-04-30T19:49:04.781Z,30.33
2019-04-30T19:51:33.352Z,19.30
2019-04-30T19:54:01.973Z,18.93
2019-04-30T19:56:32.830Z,21.57
2019-04-30T19:59:05.247Z,17.67
2019-04-30T20:01:31.085Z,17.83
2019-04-30T20:03:59.757Z,17.37
2019-04-30T20:06:28.694Z,17.50
2019-04-30T20:08:58.771Z,17.47
2019-04-30T20:11:27.147Z,18.50
2019-04-30T20:13:56.322Z,21.37
2019-04-30T20:16:24.662Z,17.40
2019-04-30T20:18:53.009Z,21.50
2019-04-30T20:21:28.016Z,23.27
2019-04-30T20:23:52.972Z,20.77
2019-04-30T20:26:21.254Z,25.37
2019-04-30T20:28:49.528Z,23.63
2019-04-30T20:31:19.073Z,27.83
2019-04-30T20:33:48.952Z,29.10
2019-04-30T20:36:19.066Z,22.00
2019-04-30T20:38:55.089Z,24.57
2019-04-30T20:41:25.060Z,24.37
2019-04-30T20:43:53.320Z,23.57
2019-04-30T20:46:31.418Z,20.10
2019-04-30T20:48:51.624Z,23.77
2019-04-30T20:51:19.973Z,23.10
2019-04-30T20:53:49.149Z,20.50
2019-04-30T20:56:19.141Z,24.00
2019-04-30T20:58:57.191Z,24.00
2019-04-30T21:01:19.345Z,23.33
2019-04-30T21:03:47.828Z,23.70
2019-04-30T21:06:16.160Z,24.03
2019-04-30T21:08:44.476Z,27.60
2019-04-30T21:11:12.848Z,29.63
2019-04-30T21:13:41.144Z,34.43
2019-04-30T21:16:09.404Z,29.10
2019-04-30T21:18:39.125Z,25.73
2019-04-30T21:21:07.567Z,25.23
2019-04-30T21:23:35.929Z,25.80
2019-04-30T21:26:04.196Z,25.40
2019-04-30T21:28:32.483Z,25.80
2019-04-30T21:31:02.473Z,23.10
2019-04-30T21:33:32.411Z,23.47
2019-04-30T21:36:05.357Z,26.07
2019-04-30T21:38:33.717Z,22.17
2019-04-30T21:41:01.986Z,23.33
2019-04-30T21:43:30.282Z,21.73
2019-04-30T21:45:59.391Z,25.93
2019-04-30T21:48:28.752Z,25.27
2019-04-30T21:50:59.185Z,27.73
2019-04-30T21:53:27.168Z,24.57
2019-04-30T21:55:55.904Z,25.27
2019-04-30T21:58:24.221Z,28.77
2019-04-30T22:01:06.257Z,24.93
2019-04-30T22:03:34.668Z,22.53
2019-04-30T22:06:02.926Z,24.27
2019-04-30T22:08:31.310Z,26.97
2019-04-30T22:11:00.235Z,26.93
2019-04-30T22:13:29.519Z,26.30
2019-04-30T22:15:57.923Z,25.87
2019-04-30T22:18:26.202Z,28.47
2019-04-30T22:20:55.507Z,24.20
2019-04-30T22:23:23.771Z,27.70
2019-04-30T22:25:52.076Z,27.70
2019-04-30T22:28:20.319Z,27.70
2019-04-30T22:30:50.404Z,25.50
2019-04-30T22:33:19.405Z,25.87
2019-04-30T22:35:52.398Z,26.73
2019-04-30T22:38:29.101Z,23.87
2019-04-30T22:40:58.913Z,25.27
2019-04-30T22:43:27.263Z,23.03
2019-04-30T22:45:57.182Z,28.13
2019-04-30T22:48:25.471Z,28.13
2019-04-30T22:50:53.763Z,25.87
2019-04-30T22:53:22.022Z,25.97
2019-04-30T22:55:50.312Z,27.90
2019-04-30T22:58:18.616Z,26.47
2019-04-30T23:00:47.514Z,28.63
2019-04-30T23:03:19.977Z,27.07
2019-04-30T23:05:48.273Z,26.13
2019-04-30T23:08:16.544Z,25.90
2019-04-30T23:10:44.834Z,25.87
2019-04-30T23:13:13.103Z,27.00
2019-04-30T23:15:41.409Z,29.07
2019-04-30T23:18:09.657Z,25.63
2019-04-30T23:20:37.953Z,26.13
2019-04-30T23:23:06.205Z,26.23
2019-04-30T23:25:34.523Z,25.27
2019-04-30T23:28:02.832Z,27.10
2019-04-30T23:30:31.088Z,25.50
2019-04-30T23:32:59.383Z,28.70
2019-04-30T23:35:27.651Z,24.47
2019-04-30T23:37:56.009Z,25.80
2019-04-30T23:40:29.176Z,25.27
2019-04-30T23:42:57.612Z,27.57
2019-04-30T23:45:25.891Z,26.07
2019-04-30T23:47:54.179Z,23.70
2019-04-30T23:50:22.436Z,25.53
2019-04-30T23:52:50.703Z,26.63
2019-04-30T23:55:18.956Z,27.40
2019-04-30T23:57:47.238Z,26.47
